sensor_id;sensor_type;location;lat;lon;timestamp;pressure;altitude;pressure_sealevel;temperature;humidity
26807;BME280;14380;49.910;6.792;2022-11-20T00:01:10;98303.34;;;5.17;100.00
26807;BME280;14380;49.910;6.792;2022-11-20T00:03:38;98305.09;;;5.17;100.00
26807;BME280;14380;49.910;6.792;2022-11-20T00:06:06;98306.19;;;5.33;100.00
26807;BME280;14380;49.910;6.792;2022-11-20T00:08:33;98303.81;;;5.27;100.00
26807;BME280;14380;49.910;6.792;2022-11-20T00:11:02;98303.22;;;5.20;100.00
26807;BME280;14380;49.910;6.792;2022-11-20T00:13:29;98298.72;;;5.24;100.00
26807;BME280;14380;49.910;6.792;2022-11-20T00:15:59;98298.66;;;5.26;100.00
26807;BME280;14380;49.910;6.792;2022-11-20T00:18:27;98295.25;;;5.44;100.00
26807;BME280;14380;49.910;6.792;2022-11-20T00:21:00;98288.00;;;5.30;100.00
26807;BME280;14380;49.910;6.792;2022-11-20T00:23:26;98293.81;;;5.37;100.00
26807;BME280;14380;49.910;6.792;2022-11-20T00:25:53;98295.47;;;5.60;100.00
26807;BME280;14380;49.910;6.792;2022-11-20T00:28:19;98288.41;;;5.42;100.00
26807;BME280;14380;49.910;6.792;2022-11-20T00:30:46;98301.88;;;5.32;100.00
26807;BME280;14380;49.910;6.792;2022-11-20T00:33:12;98294.94;;;5.31;100.00
26807;BME280;14380;49.910;6.792;2022-11-20T00:35:40;98294.84;;;5.33;100.00
26807;BME280;14380;49.910;6.792;2022-11-20T00:38:07;98291.72;;;5.45;100.00
26807;BME280;14380;49.910;6.792;2022-11-20T00:40:33;98296.34;;;5.61;100.00
26807;BME280;14380;49.910;6.792;2022-11-20T00:42:59;98294.13;;;5.29;100.00
26807;BME280;14380;49.910;6.792;2022-11-20T00:45:26;98296.44;;;5.37;100.00
26807;BME280;14380;49.910;6.792;2022-11-20T00:47:52;98294.94;;;5.31;100.00
26807;BME280;14380;49.910;6.792;2022-11-20T00:50:19;98292.19;;;5.34;100.00
26807;BME280;14380;49.910;6.792;2022-11-20T00:52:47;98292.19;;;5.34;100.00
26807;BME280;14380;49.910;6.792;2022-11-20T00:55:13;98301.16;;;5.49;100.00
26807;BME280;14380;49.910;6.792;2022-11-20T00:57:40;98304.28;;;5.37;100.00
26807;BME280;14380;49.910;6.792;2022-11-20T01:00:07;98305.59;;;5.27;100.00
26807;BME280;14380;49.910;6.792;2022-11-20T01:02:34;98304.97;;;5.20;100.00
26807;BME280;14380;49.910;6.792;2022-11-20T01:05:01;98299.75;;;5.20;100.00
26807;BME280;14380;49.910;6.792;2022-11-20T01:07:27;98305.28;;;5.34;100.00
26807;BME280;14380;49.910;6.792;2022-11-20T01:09:55;98303.34;;;5.17;100.00
26807;BME280;14380;49.910;6.792;2022-11-20T01:12:22;98303.69;;;5.30;100.00
26807;BME280;14380;49.910;6.792;2022-11-20T01:14:48;98307.47;;;5.23;100.00
26807;BME280;14380;49.910;6.792;2022-11-20T01:17:14;98300.53;;;5.22;100.00
26807;BME280;14380;49.910;6.792;2022-11-20T01:19:41;98299.50;;;5.26;100.00
26807;BME280;14380;49.910;6.792;2022-11-20T01:22:07;98293.13;;;5.11;100.00
26807;BME280;14380;49.910;6.792;2022-11-20T01:24:34;98304.81;;;5.25;100.00
26807;BME280;14380;49.910;6.792;2022-11-20T01:27:02;98303.03;;;5.25;100.00
26807;BME280;14380;49.910;6.792;2022-11-20T01:29:28;98297.16;;;5.41;100.00
26807;BME280;14380;49.910;6.792;2022-11-20T01:31:55;98287.28;;;5.27;100.00
26807;BME280;14380;49.910;6.792;2022-11-20T01:34:22;98291.44;;;5.31;100.00
26807;BME280;14380;49.910;6.792;2022-11-20T01:36:49;98293.34;;;5.27;100.00
26807;BME280;14380;49.910;6.792;2022-11-20T01:39:18;98302.31;;;5.21;100.00
26807;BME280;14380;49.910;6.792;2022-11-20T01:41:46;98294.09;;;5.09;100.00
26807;BME280;14380;49.910;6.792;2022-11-20T01:44:51;98282.34;;;5.19;100.00
26807;BME280;14380;49.910;6.792;2022-11-20T01:47:22;98285.50;;;5.27;100.00
26807;BME280;14380;49.910;6.792;2022-11-20T01:49:53;98289.34;;;5.18;100.00
26807;BME280;14380;49.910;6.792;2022-11-20T01:52:24;98288.72;;;5.12;100.00
26807;BME280;14380;49.910;6.792;2022-11-20T01:54:54;98284.97;;;5.19;100.00
26807;BME280;14380;49.910;6.792;2022-11-20T01:57:25;98277.84;;;5.23;100.00
26807;BME280;14380;49.910;6.792;2022-11-20T01:59:59;98278.38;;;5.09;100.00
26807;BME280;14380;49.910;6.792;2022-11-20T02:02:26;98283.22;;;5.19;100.00
26807;BME280;14380;49.910;6.792;2022-11-20T02:04:55;98284.84;;;5.22;100.00
26807;BME280;14380;49.910;6.792;2022-11-20T02:07:23;98284.72;;;5.25;100.00
26807;BME280;14380;49.910;6.792;2022-11-20T02:09:50;98286.75;;;5.18;100.00
26807;BME280;14380;49.910;6.792;2022-11-20T02:12:17;98282.28;;;5.20;100.00
26807;BME280;14380;49.910;6.792;2022-11-20T02:14:59;98288.66;;;5.35;100.00
26807;BME280;14380;49.910;6.792;2022-11-20T02:17:26;98290.69;;;5.29;100.00
26807;BME280;14380;49.910;6.792;2022-11-20T02:19:53;98287.56;;;5.19;100.00
26807;BME280;14380;49.910;6.792;2022-11-20T02:22:24;98294.72;;;5.36;100.00
26807;BME280;14380;49.910;6.792;2022-11-20T02:24:56;98293.34;;;5.27;100.00
26807;BME280;14380;49.910;6.792;2022-11-20T02:27:23;98296.97;;;5.25;100.00
26807;BME280;14380;49.910;6.792;2022-11-20T02:29:52;98289.91;;;5.27;100.00
26807;BME280;14380;49.910;6.792;2022-11-20T02:32:20;98282.34;;;5.19;100.00
26807;BME280;14380;49.910;6.792;2022-11-20T02:34:47;98285.16;;;5.14;100.00
26807;BME280;14380;49.910;6.792;2022-11-20T02:37:14;98282.28;;;5.20;100.00
26807;BME280;14380;49.910;6.792;2022-11-20T02:39:41;98279.97;;;5.13;100.00
26807;BME280;14380;49.910;6.792;2022-11-20T02:42:09;98281.19;;;5.26;100.00
26807;BME280;14380;49.910;6.792;2022-11-20T02:44:36;98274.50;;;5.19;100.00
26807;BME280;14380;49.910;6.792;2022-11-20T02:47:02;98267.41;;;5.00;100.00
26807;BME280;14380;49.910;6.792;2022-11-20T02:49:29;98271.69;;;5.24;100.00
26807;BME280;14380;49.910;6.792;2022-11-20T02:51:55;98267.91;;;5.09;100.00
26807;BME280;14380;49.910;6.792;2022-11-20T02:54:22;98261.34;;;5.20;100.00
26807;BME280;14380;49.910;6.792;2022-11-20T02:56:48;98259.84;;;5.35;100.00
26807;BME280;14380;49.910;6.792;2022-11-20T02:59:16;98259.97;;;5.32;100.00
26807;BME280;14380;49.910;6.792;2022-11-20T03:01:43;98258.00;;;5.17;100.00
26807;BME280;14380;49.910;6.792;2022-11-20T03:04:09;98256.03;;;5.22;100.00
26807;BME280;14380;49.910;6.792;2022-11-20T03:06:36;98260.56;;;5.18;100.00
26807;BME280;14380;49.910;6.792;2022-11-20T03:09:02;98257.16;;;5.16;100.00
26807;BME280;14380;49.910;6.792;2022-11-20T03:11:29;98258.44;;;5.06;100.00
26807;BME280;14380;49.910;6.792;2022-11-20T03:13:55;98265.34;;;5.29;100.00
26807;BME280;14380;49.910;6.792;2022-11-20T03:16:23;98259.34;;;5.05;100.00
26807;BME280;14380;49.910;6.792;2022-11-20T03:18:51;98249.22;;;5.18;100.00
26807;BME280;14380;49.910;6.792;2022-11-20T03:21:18;98253.75;;;5.35;100.00
26807;BME280;14380;49.910;6.792;2022-11-20T03:23:45;98249.22;;;5.18;100.00
26807;BME280;14380;49.910;6.792;2022-11-20T03:26:13;98259.25;;;5.08;100.00
26807;BME280;14380;49.910;6.792;2022-11-20T03:28:40;98246.44;;;5.23;100.00
26807;BME280;14380;49.910;6.792;2022-11-20T03:31:09;98247.91;;;5.30;100.00
26807;BME280;14380;49.910;6.792;2022-11-20T03:33:37;98243.56;;;5.29;100.00
26807;BME280;14380;49.910;6.792;2022-11-20T03:36:06;98235.25;;;5.40;100.00
26807;BME280;14380;49.910;6.792;2022-11-20T03:38:33;98238.75;;;5.18;100.00
26807;BME280;14380;49.910;6.792;2022-11-20T03:41:01;98235.31;;;5.17;100.00
26807;BME280;14380;49.910;6.792;2022-11-20T03:43:28;98243.41;;;5.11;100.00
26807;BME280;14380;49.910;6.792;2022-11-20T03:45:55;98235.91;;;5.24;100.00
26807;BME280;14380;49.910;6.792;2022-11-20T03:48:22;98231.16;;;5.12;100.00
26807;BME280;14380;49.910;6.792;2022-11-20T03:50:50;98242.25;;;5.39;100.00
26807;BME280;14380;49.910;6.792;2022-11-20T03:53:17;98237.13;;;5.36;100.00
26807;BME280;14380;49.910;6.792;2022-11-20T03:55:43;98235.75;;;5.06;100.00
26807;BME280;14380;49.910;6.792;2022-11-20T03:58:10;98240.88;;;5.30;100.00
26807;BME280;14380;49.910;6.792;2022-11-20T04:00:38;98238.50;;;5.03;100.00
26807;BME280;14380;49.910;6.792;2022-11-20T04:03:05;98241.13;;;5.03;100.00
26807;BME280;14380;49.910;6.792;2022-11-20T04:05:32;98238.72;;;5.19;100.00
26807;BME280;14380;49.910;6.792;2022-11-20T04:08:00;98241.47;;;5.16;100.00
26807;BME280;14380;49.910;6.792;2022-11-20T04:10:27;98235.56;;;5.11;100.00
26807;BME280;14380;49.910;6.792;2022-11-20T04:12:53;98238.09;;;5.13;100.00
26807;BME280;14380;49.910;6.792;2022-11-20T04:15:20;98237.34;;;5.31;100.00
26807;BME280;14380;49.910;6.792;2022-11-20T04:17:46;98224.91;;;5.36;100.00
26807;BME280;14380;49.910;6.792;2022-11-20T04:20:13;98222.09;;;5.41;100.00
26807;BME280;14380;49.910;6.792;2022-11-20T04:22:39;98240.41;;;5.20;100.00
26807;BME280;14380;49.910;6.792;2022-11-20T04:25:08;98234.72;;;5.31;100.00
26807;BME280;14380;49.910;6.792;2022-11-20T04:27:34;98232.50;;;5.22;100.00
26807;BME280;14380;49.910;6.792;2022-11-20T04:30:01;98233.72;;;5.34;100.00
26807;BME280;14380;49.910;6.792;2022-11-20T04:32:27;98233.72;;;5.34;100.00
26807;BME280;14380;49.910;6.792;2022-11-20T04:34:54;98239.63;;;5.39;100.00
26807;BME280;14380;49.910;6.792;2022-11-20T04:37:20;98247.31;;;5.01;100.00
26807;BME280;14380;49.910;6.792;2022-11-20T04:39:47;98239.19;;;5.29;100.00
26807;BME280;14380;49.910;6.792;2022-11-20T04:42:15;98240.75;;;5.33;100.00
26807;BME280;14380;49.910;6.792;2022-11-20T04:44:57;98231.97;;;5.34;100.00
26807;BME280;14380;49.910;6.792;2022-11-20T04:47:23;98241.84;;;5.07;100.00
26807;BME280;14380;49.910;6.792;2022-11-20T04:49:50;98233.16;;;5.27;100.00
26807;BME280;14380;49.910;6.792;2022-11-20T04:52:16;98235.69;;;5.08;100.00
26807;BME280;14380;49.910;6.792;2022-11-20T04:54:43;98234.06;;;5.26;100.00
26807;BME280;14380;49.910;6.792;2022-11-20T04:57:09;98230.81;;;5.42;100.00
26807;BME280;14380;49.910;6.792;2022-11-20T04:59:37;98229.47;;;5.52;100.00
26807;BME280;14380;49.910;6.792;2022-11-20T05:02:04;98234.06;;;5.26;100.00
26807;BME280;14380;49.910;6.792;2022-11-20T05:04:30;98232.09;;;5.31;100.00
26807;BME280;14380;49.910;6.792;2022-11-20T05:06:57;98240.50;;;5.40;100.00
26807;BME280;14380;49.910;6.792;2022-11-20T05:09:23;98244.13;;;5.15;100.00
26807;BME280;14380;49.910;6.792;2022-11-20T05:11:50;98242.78;;;5.27;100.00
26807;BME280;14380;49.910;6.792;2022-11-20T05:14:16;98237.25;;;5.12;100.00
26807;BME280;14380;49.910;6.792;2022-11-20T05:16:44;98235.19;;;5.20;100.00
26807;BME280;14380;49.910;6.792;2022-11-20T05:19:10;98234.16;;;5.25;100.00
26807;BME280;14380;49.910;6.792;2022-11-20T05:21:37;98244.13;;;5.15;100.00
26807;BME280;14380;49.910;6.792;2022-11-20T05:24:04;98232.56;;;5.20;100.00
26807;BME280;14380;49.910;6.792;2022-11-20T05:26:31;98240.75;;;5.33;100.00
26807;BME280;14380;49.910;6.792;2022-11-20T05:28:57;98249.75;;;5.05;100.00
26807;BME280;14380;49.910;6.792;2022-11-20T05:31:24;98242.13;;;5.21;100.00
26807;BME280;14380;49.910;6.792;2022-11-20T05:33:52;98240.50;;;5.40;100.00
26807;BME280;14380;49.910;6.792;2022-11-20T05:36:19;98236.56;;;5.29;100.00
26807;BME280;14380;49.910;6.792;2022-11-20T05:38:45;98238.50;;;5.24;100.00
26807;BME280;14380;49.910;6.792;2022-11-20T05:41:14;98237.69;;;5.24;100.00
26807;BME280;14380;49.910;6.792;2022-11-20T05:43:43;98239.44;;;5.44;100.00
26807;BME280;14380;49.910;6.792;2022-11-20T05:46:11;98244.03;;;5.39;100.00
26807;BME280;14380;49.910;6.792;2022-11-20T05:48:40;98243.09;;;5.19;100.00
26807;BME280;14380;49.910;6.792;2022-11-20T05:51:10;98245.06;;;5.34;100.00
26807;BME280;14380;49.910;6.792;2022-11-20T05:53:37;98241.72;;;5.31;100.00
26807;BME280;14380;49.910;6.792;2022-11-20T05:56:05;98239.25;;;5.28;100.00
26807;BME280;14380;49.910;6.792;2022-11-20T05:58:32;98238.38;;;5.27;100.00
26807;BME280;14380;49.910;6.792;2022-11-20T06:01:04;98236.88;;;5.42;100.00
26807;BME280;14380;49.910;6.792;2022-11-20T06:03:31;98243.25;;;5.36;100.00
26807;BME280;14380;49.910;6.792;2022-11-20T06:05:58;98237.97;;;5.57;100.00
26807;BME280;14380;49.910;6.792;2022-11-20T06:08:28;98242.97;;;5.43;100.00
26807;BME280;14380;49.910;6.792;2022-11-20T06:10:55;98238.72;;;5.40;100.00
26807;BME280;14380;49.910;6.792;2022-11-20T06:13:21;98242.06;;;5.44;100.00
26807;BME280;14380;49.910;6.792;2022-11-20T06:15:48;98237.16;;;5.57;100.00
26807;BME280;14380;49.910;6.792;2022-11-20T06:18:15;98236.16;;;5.39;100.00
26807;BME280;14380;49.910;6.792;2022-11-20T06:20:42;98241.47;;;5.58;100.00
26807;BME280;14380;49.910;6.792;2022-11-20T06:23:08;98237.59;;;5.25;100.00
26807;BME280;14380;49.910;6.792;2022-11-20T06:25:38;98233.59;;;5.37;100.00
26807;BME280;14380;49.910;6.792;2022-11-20T06:28:05;98234.66;;;5.54;100.00
26807;BME280;14380;49.910;6.792;2022-11-20T06:30:32;98232.09;;;5.52;100.00
26807;BME280;14380;49.910;6.792;2022-11-20T06:32:59;98235.06;;;5.65;100.00
26807;BME280;14380;49.910;6.792;2022-11-20T06:35:25;98234.44;;;5.58;100.00
26807;BME280;14380;49.910;6.792;2022-11-20T06:37:52;98235.44;;;5.56;100.00
26807;BME280;14380;49.910;6.792;2022-11-20T06:40:18;98245.25;;;5.50;100.00
26807;BME280;14380;49.910;6.792;2022-11-20T06:42:46;98242.78;;;5.47;100.00
26807;BME280;14380;49.910;6.792;2022-11-20T06:45:12;98244.88;;;5.60;100.00
26807;BME280;14380;49.910;6.792;2022-11-20T06:47:39;98247.75;;;5.54;100.00
26807;BME280;14380;49.910;6.792;2022-11-20T06:50:06;98254.22;;;5.65;100.00
26807;BME280;14380;49.910;6.792;2022-11-20T06:52:33;98248.44;;;5.57;100.00
26807;BME280;14380;49.910;6.792;2022-11-20T06:54:59;98262.41;;;5.58;100.00
26807;BME280;14380;49.910;6.792;2022-11-20T06:57:26;98262.47;;;5.56;100.00
26807;BME280;14380;49.910;6.792;2022-11-20T06:59:53;98262.69;;;5.72;100.00
26807;BME280;14380;49.910;6.792;2022-11-20T07:02:20;98262.19;;;5.62;100.00
26807;BME280;14380;49.910;6.792;2022-11-20T07:04:46;98266.25;;;5.70;100.00
26807;BME280;14380;49.910;6.792;2022-11-20T07:07:13;98266.66;;;5.60;100.00
26807;BME280;14380;49.910;6.792;2022-11-20T07:09:39;98263.00;;;5.64;100.00
26807;BME280;14380;49.910;6.792;2022-11-20T07:12:06;98265.75;;;5.61;100.00
26807;BME280;14380;49.910;6.792;2022-11-20T07:14:32;98271.44;;;5.71;100.00
26807;BME280;14380;49.910;6.792;2022-11-20T07:17:00;98271.59;;;5.68;100.00
26807;BME280;14380;49.910;6.792;2022-11-20T07:19:27;98282.25;;;5.84;100.00
26807;BME280;14380;49.910;6.792;2022-11-20T07:21:53;98282.06;;;5.68;100.00
26807;BME280;14380;49.910;6.792;2022-11-20T07:24:19;98291.28;;;5.77;100.00
26807;BME280;14380;49.910;6.792;2022-11-20T07:26:46;98288.72;;;5.75;100.00
26807;BME280;14380;49.910;6.792;2022-11-20T07:29:14;98288.97;;;5.90;100.00
26807;BME280;14380;49.910;6.792;2022-11-20T07:31:41;98292.03;;;6.00;100.00
26807;BME280;14380;49.910;6.792;2022-11-20T07:34:09;98288.47;;;6.02;100.00
26807;BME280;14380;49.910;6.792;2022-11-20T07:36:35;98288.63;;;5.98;100.00
26807;BME280;14380;49.910;6.792;2022-11-20T07:39:02;98293.16;;;6.15;100.00
26807;BME280;14380;49.910;6.792;2022-11-20T07:41:29;98293.31;;;6.31;100.00
26807;BME280;14380;49.910;6.792;2022-11-20T07:43:56;98289.16;;;6.46;100.00
26807;BME280;14380;49.910;6.792;2022-11-20T07:46:22;98292.13;;;6.57;100.00
26807;BME280;14380;49.910;6.792;2022-11-20T07:48:49;98294.31;;;6.47;100.00
26807;BME280;14380;49.910;6.792;2022-11-20T07:51:17;98294.53;;;6.62;100.00
26807;BME280;14380;49.910;6.792;2022-11-20T07:53:43;98294.44;;;6.63;100.00
26807;BME280;14380;49.910;6.792;2022-11-20T07:56:09;98291.13;;;6.60;100.00
26807;BME280;14380;49.910;6.792;2022-11-20T07:58:36;98293.88;;;6.76;100.00
26807;BME280;14380;49.910;6.792;2022-11-20T08:01:03;98294.75;;;6.76;100.00
26807;BME280;14380;49.910;6.792;2022-11-20T08:03:30;98293.66;;;6.80;100.00
26807;BME280;14380;49.910;6.792;2022-11-20T08:05:58;98294.06;;;6.90;100.00
26807;BME280;14380;49.910;6.792;2022-11-20T08:08:27;98304.84;;;6.84;100.00
26807;BME280;14380;49.910;6.792;2022-11-20T08:10:54;98303.56;;;6.93;100.00
26807;BME280;14380;49.910;6.792;2022-11-20T08:13:41;98307.94;;;7.11;100.00
26807;BME280;14380;49.910;6.792;2022-11-20T08:16:25;98307.66;;;7.18;100.00
26807;BME280;14380;49.910;6.792;2022-11-20T08:18:51;98311.25;;;7.15;100.00
26807;BME280;14380;49.910;6.792;2022-11-20T08:21:18;98308.34;;;7.21;100.00
26807;BME280;14380;49.910;6.792;2022-11-20T08:23:46;98306.97;;;7.32;100.00
26807;BME280;14380;49.910;6.792;2022-11-20T08:26:12;98312.66;;;7.22;100.00
26807;BME280;14380;49.910;6.792;2022-11-20T08:28:39;98315.13;;;7.25;100.00
26807;BME280;14380;49.910;6.792;2022-11-20T08:31:05;98310.59;;;7.47;100.00
26807;BME280;14380;49.910;6.792;2022-11-20T08:33:32;98320.34;;;7.27;100.00
26807;BME280;14380;49.910;6.792;2022-11-20T08:35:59;98315.13;;;7.25;100.00
26807;BME280;14380;49.910;6.792;2022-11-20T08:38:26;98312.06;;;7.52;100.00
26807;BME280;14380;49.910;6.792;2022-11-20T08:40:57;98313.47;;;7.59;100.00
26807;BME280;14380;49.910;6.792;2022-11-20T08:43:41;98309.53;;;7.51;100.00
26807;BME280;14380;49.910;6.792;2022-11-20T08:46:08;98310.84;;;7.42;100.00
26807;BME280;14380;49.910;6.792;2022-11-20T08:48:34;98313.94;;;7.50;100.00
26807;BME280;14380;49.910;6.792;2022-11-20T08:51:01;98316.00;;;7.43;100.00
26807;BME280;14380;49.910;6.792;2022-11-20T08:53:27;98322.13;;;7.44;100.00
26807;BME280;14380;49.910;6.792;2022-11-20T08:55:54;98308.06;;;7.45;100.00
26807;BME280;14380;49.910;6.792;2022-11-20T08:58:24;98318.38;;;7.31;100.00
26807;BME280;14380;49.910;6.792;2022-11-20T09:00:50;98320.69;;;7.19;100.00
26807;BME280;14380;49.910;6.792;2022-11-20T09:03:17;98322.28;;;7.04;100.00
26807;BME280;14380;49.910;6.792;2022-11-20T09:05:43;98319.75;;;7.20;100.00
26807;BME280;14380;49.910;6.792;2022-11-20T09:08:10;98318.00;;;7.38;100.00
26807;BME280;14380;49.910;6.792;2022-11-20T09:10:36;98314.94;;;7.48;100.00
26807;BME280;14380;49.910;6.792;2022-11-20T09:13:05;98314.63;;;7.54;100.00
26807;BME280;14380;49.910;6.792;2022-11-20T09:15:33;98318.78;;;7.76;100.00
26807;BME280;14380;49.910;6.792;2022-11-20T09:18:01;98308.72;;;7.84;100.00
26807;BME280;14380;49.910;6.792;2022-11-20T09:20:29;98310.59;;;7.82;100.00
26807;BME280;14380;49.910;6.792;2022-11-20T09:22:56;98312.84;;;7.72;100.00
26807;BME280;14380;49.910;6.792;2022-11-20T09:25:24;98312.69;;;7.93;100.00
26807;BME280;14380;49.910;6.792;2022-11-20T09:27:54;98318.53;;;7.98;100.00
26807;BME280;14380;49.910;6.792;2022-11-20T09:30:21;98315.88;;;8.15;100.00
26807;BME280;14380;49.910;6.792;2022-11-20T09:32:49;98319.19;;;8.19;100.00
26807;BME280;14380;49.910;6.792;2022-11-20T09:35:16;98325.31;;;8.02;100.00
26807;BME280;14380;49.910;6.792;2022-11-20T09:37:43;98320.31;;;8.15;100.00
26807;BME280;14380;49.910;6.792;2022-11-20T09:40:18;98318.63;;;8.30;100.00
26807;BME280;14380;49.910;6.792;2022-11-20T09:42:47;98308.03;;;8.31;100.00
26807;BME280;14380;49.910;6.792;2022-11-20T09:45:24;98309.72;;;8.32;100.00
26807;BME280;14380;49.910;6.792;2022-11-20T09:48:04;98307.06;;;8.16;100.00
26807;BME280;14380;49.910;6.792;2022-11-20T09:50:37;98308.25;;;8.11;100.00
26807;BME280;14380;49.910;6.792;2022-11-20T09:53:13;98305.19;;;8.18;100.00
26807;BME280;14380;49.910;6.792;2022-11-20T09:55:42;98303.25;;;8.22;100.00
26807;BME280;14380;49.910;6.792;2022-11-20T09:58:16;98305.56;;;8.28;100.00
26807;BME280;14380;49.910;6.792;2022-11-20T10:00:45;98299.25;;;8.48;100.00
26807;BME280;14380;49.910;6.792;2022-11-20T10:03:17;98301.72;;;8.52;100.00
26807;BME280;14380;49.910;6.792;2022-11-20T10:05:47;98298.75;;;8.58;100.00
26807;BME280;14380;49.910;6.792;2022-11-20T10:08:18;98300.88;;;8.67;100.00
26807;BME280;14380;49.910;6.792;2022-11-20T10:10:49;98283.13;;;9.03;100.00
26807;BME280;14380;49.910;6.792;2022-11-20T10:13:30;98281.47;;;9.16;100.00
26807;BME280;14380;49.910;6.792;2022-11-20T10:16:08;98281.88;;;9.25;100.00
26807;BME280;14380;49.910;6.792;2022-11-20T10:18:47;98274.13;;;9.37;100.00
26807;BME280;14380;49.910;6.792;2022-11-20T10:21:27;98272.19;;;9.56;100.00
26807;BME280;14380;49.910;6.792;2022-11-20T10:24:07;98267.66;;;9.13;100.00
26807;BME280;14380;49.910;6.792;2022-11-20T10:26:43;98264.66;;;9.19;100.00
26807;BME280;14380;49.910;6.792;2022-11-20T10:29:14;98265.63;;;9.32;100.00
26807;BME280;14380;49.910;6.792;2022-11-20T10:31:43;98261.16;;;9.18;100.00
26807;BME280;14380;49.910;6.792;2022-11-20T10:34:19;98256.31;;;9.27;100.00
26807;BME280;14380;49.910;6.792;2022-11-20T10:36:51;98253.00;;;8.92;100.00
26807;BME280;14380;49.910;6.792;2022-11-20T10:39:24;98264.50;;;9.22;100.00
26807;BME280;14380;49.910;6.792;2022-11-20T10:41:53;98263.09;;;9.31;100.00
26807;BME280;14380;49.910;6.792;2022-11-20T10:44:21;98258.47;;;9.34;100.00
26807;BME280;14380;49.910;6.792;2022-11-20T10:47:09;98252.81;;;8.96;100.00
26807;BME280;14380;49.910;6.792;2022-11-20T10:49:41;98257.38;;;9.38;100.00
26807;BME280;14380;49.910;6.792;2022-11-20T10:52:12;98246.84;;;9.38;100.00
26807;BME280;14380;49.910;6.792;2022-11-20T10:54:47;98247.06;;;9.50;100.00
26807;BME280;14380;49.910;6.792;2022-11-20T10:57:29;98245.19;;;9.52;100.00
26807;BME280;14380;49.910;6.792;2022-11-20T11:00:02;98248.28;;;9.59;100.00
26807;BME280;14380;49.910;6.792;2022-11-20T11:02:35;98244.03;;;9.42;100.00
26807;BME280;14380;49.910;6.792;2022-11-20T11:05:13;98237.75;;;9.44;100.00
26807;BME280;14380;49.910;6.792;2022-11-20T11:07:45;98242.78;;;9.33;100.00
26807;BME280;14380;49.910;6.792;2022-11-20T11:10:17;98232.19;;;9.18;100.00
26807;BME280;14380;49.910;6.792;2022-11-20T11:12:45;98242.06;;;9.60;100.00
26807;BME280;14380;49.910;6.792;2022-11-20T11:15:14;98243.56;;;9.49;100.00
26807;BME280;14380;49.910;6.792;2022-11-20T11:17:46;98236.63;;;9.63;100.00
26807;BME280;14380;49.910;6.792;2022-11-20T11:20:18;98231.28;;;9.64;100.00
26807;BME280;14380;49.910;6.792;2022-11-20T11:22:47;98231.56;;;9.29;100.00
26807;BME280;14380;49.910;6.792;2022-11-20T11:25:24;98231.34;;;9.63;100.00
26807;BME280;14380;49.910;6.792;2022-11-20T11:27:52;98228.81;;;9.61;100.00
26807;BME280;14380;49.910;6.792;2022-11-20T11:30:21;98228.06;;;9.59;100.00
26807;BME280;14380;49.910;6.792;2022-11-20T11:32:48;98226.66;;;9.97;100.00
26807;BME280;14380;49.910;6.792;2022-11-20T11:35:23;98223.81;;;10.29;100.00
26807;BME280;14380;49.910;6.792;2022-11-20T11:37:51;98220.25;;;9.72;100.00
26807;BME280;14380;49.910;6.792;2022-11-20T11:40:21;98218.75;;;10.26;100.00
26807;BME280;14380;49.910;6.792;2022-11-20T11:42:52;98210.47;;;9.74;100.00
26807;BME280;14380;49.910;6.792;2022-11-20T11:45:21;98215.84;;;9.87;100.00
26807;BME280;14380;49.910;6.792;2022-11-20T11:47:47;98209.75;;;9.42;100.00
26807;BME280;14380;49.910;6.792;2022-11-20T11:50:17;98210.63;;;9.12;100.00
26807;BME280;14380;49.910;6.792;2022-11-20T11:52:53;98204.81;;;9.66;100.00
26807;BME280;14380;49.910;6.792;2022-11-20T11:55:27;98206.44;;;9.69;100.00
26807;BME280;14380;49.910;6.792;2022-11-20T11:58:06;98202.63;;;9.73;100.00
26807;BME280;14380;49.910;6.792;2022-11-20T12:00:35;98192.41;;;9.82;100.00
26807;BME280;14380;49.910;6.792;2022-11-20T12:03:09;98187.78;;;10.01;100.00
26807;BME280;14380;49.910;6.792;2022-11-20T12:05:43;98195.03;;;9.82;100.00
26807;BME280;14380;49.910;6.792;2022-11-20T12:08:15;98188.91;;;9.96;100.00
26807;BME280;14380;49.910;6.792;2022-11-20T12:10:48;98183.53;;;9.55;100.00
26807;BME280;14380;49.910;6.792;2022-11-20T12:13:32;98184.97;;;9.60;100.00
26807;BME280;14380;49.910;6.792;2022-11-20T12:16:02;98177.22;;;9.72;100.00
26807;BME280;14380;49.910;6.792;2022-11-20T12:18:29;98172.13;;;9.97;100.00
26807;BME280;14380;49.910;6.792;2022-11-20T12:21:06;98175.44;;;9.87;100.00
26807;BME280;14380;49.910;6.792;2022-11-20T12:23:45;98179.09;;;10.13;100.00
26807;BME280;14380;49.910;6.792;2022-11-20T12:26:22;98174.09;;;10.08;100.00
26807;BME280;14380;49.910;6.792;2022-11-20T12:29:02;98176.78;;;9.79;100.00
26807;BME280;14380;49.910;6.792;2022-11-20T12:31:42;98171.31;;;9.82;100.00
26807;BME280;14380;49.910;6.792;2022-11-20T12:34:33;98177.06;;;9.60;100.00
26807;BME280;14380;49.910;6.792;2022-11-20T12:37:09;98172.25;;;9.81;100.00
26807;BME280;14380;49.910;6.792;2022-11-20T12:39:48;98174.09;;;9.50;100.00
26807;BME280;14380;49.910;6.792;2022-11-20T12:42:38;98162.69;;;9.21;100.00
26807;BME280;14380;49.910;6.792;2022-11-20T12:45:44;98161.19;;;9.31;100.00
26807;BME280;14380;49.910;6.792;2022-11-20T12:48:35;98159.03;;;9.23;100.00
26807;BME280;14380;49.910;6.792;2022-11-20T12:51:20;98148.97;;;9.74;100.00
26807;BME280;14380;49.910;6.792;2022-11-20T12:53:59;98152.06;;;9.22;100.00
26807;BME280;14380;49.910;6.792;2022-11-20T12:56:38;98142.69;;;9.62;100.00
26807;BME280;14380;49.910;6.792;2022-11-20T12:59:19;98144.19;;;9.37;100.00
26807;BME280;14380;49.910;6.792;2022-11-20T13:01:52;98146.53;;;9.56;100.00
26807;BME280;14380;49.910;6.792;2022-11-20T13:04:44;98140.34;;;9.57;100.00
26807;BME280;14380;49.910;6.792;2022-11-20T13:07:16;98132.59;;;9.25;100.00
26807;BME280;14380;49.910;6.792;2022-11-20T13:09:45;98124.81;;;9.38;100.00
26807;BME280;14380;49.910;6.792;2022-11-20T13:12:17;98134.72;;;9.04;100.00